Terminal Aerodrome Forecast
Issued by NWS

Home | Current Version | Previous Version | Text Only | Print | Product List | Glossary On
Versions: 1 2 3 4 5 6 7 8 9 10 11 12 13
140
FTUS45 KABQ 260536
TAFFMN
TAF
KFMN 260536Z 2606/2706 32005KT P6SM FEW250
     FM261600 30010KT P6SM SCT250
     FM261900 29015KT P6SM SKC
     FM270200 29008KT P6SM SKC
     FM270500 08006KT P6SM SKC=

USA.gov is the U.S. government's official web portal to all federal, state and local government web resources and services.